Terminal Aerodrome Forecast
Issued by NWS

Home | Current Version | Previous Version | Text Only | Print | Product List | Glossary On
Versions: 1 2 3 4 5 6 7 8 9 10 11
944
FTUS46 KHNX 252320
TAFMCE
TAF
KMCE 252320Z 2600/2624 32013G20KT P6SM BKN200
     FM260800 32008KT P6SM BKN200
     FM262100 32012G19KT P6SM SCT100 BKN200=

USA.gov is the U.S. government's official web portal to all federal, state and local government web resources and services.